| Date | Time | Temp. (oF) | Dew Point (oF) | Rel. Hum. (%) | Press. (in.) | Wind Dir. | Wind Speed (mph) | Hourly Rainfall (in.) |
|
|---|---|---|---|---|---|---|---|---|---|
| 1 | 05/29 | 00:00 | 70 | 58 | 68 | 30.19 | ENE | 0 | 0.00 |
| 2 | 05/28 | 23:00 | 71 | 60 | 69 | 30.19 | ENE | 0 | 0.00 |
| 3 | 05/28 | 22:00 | 73 | 60 | 66 | 30.17 | NNE | 0 | 0.00 |
| 4 | 05/28 | 21:00 | 77 | 60 | 58 | 30.15 | NNE | 0 | 0.00 |
| 5 | 05/28 | 20:00 | 80 | 60 | 52 | 30.13 | NNE | 0 | 0.00 |
| 6 | 05/28 | 19:00 | 82 | 61 | 50 | 30.11 | NE | 0 | 0.00 |
| 7 | 05/28 | 18:00 | 84 | 60 | 46 | 30.10 | N | 4 | 0.00 |
| 8 | 05/28 | 17:00 | 85 | 64 | 51 | 30.11 | NNE | 3 | 0.00 |
| 9 | 05/28 | 16:00 | 85 | 66 | 55 | 30.12 | N | 3 | 0.00 |
| 10 | 05/28 | 15:00 | 84 | 65 | 54 | 30.12 | N | 0 | 0.00 |
| 11 | 05/28 | 14:00 | 84 | 67 | 57 | 30.13 | S | 5 | 0.00 |
| 12 | 05/28 | 13:00 | 82 | 67 | 62 | 30.14 | S | 1 | 0.00 |
| 13 | 05/28 | 12:00 | 81 | 69 | 68 | 30.15 | SW | 7 | 0.00 |
| 14 | 05/28 | 11:00 | 80 | 70 | 74 | 30.15 | NE | 1 | 0.00 |
| 15 | 05/28 | 10:00 | 77 | 72 | 85 | 30.15 | SW | 2 | 0.00 |
| 16 | miss | miss | miss | miss | miss | miss | miss | miss | |
| 17 | 05/28 | 07:59 | 70 | 67 | 93 | 30.14 | SSW | 7 | 0.00 |
| 18 | 05/28 | 07:00 | 69 | 66 | 92 | 30.13 | SE | 3 | 0.00 |
| 19 | 05/28 | 06:00 | 68 | 65 | 93 | 30.12 | SSE | 0 | 0.00 |
| 20 | 05/28 | 05:00 | 68 | 66 | 94 | 30.10 | S | 0 | 0.00 |
| 21 | 05/28 | 04:00 | 69 | 66 | 93 | 30.09 | S | 0 | 0.00 |
| 22 | 05/28 | 03:00 | 69 | 67 | 94 | 30.09 | S | 0 | 0.00 |
| 23 | 05/28 | 02:00 | 69 | 67 | 94 | 30.10 | SSW | 3 | 0.00 |
| 24 | 05/28 | 01:00 | 70 | 67 | 93 | 30.10 | SSE | 5 | 0.00 |